Time;durP1;ratioP1;P1;durP2;ratioP2;P2;SDS_P1;SDS_P2;PMS_P1;PMS_P2;Temp;Humidity;BMP_temperature;BMP_pressure;BME280_temperature;BME280_humidity;BME280_pressure;Samples;Min_cycle;Max_cycle;Signal;HPM_P1;HPM_P2
2021/11/18 00:00:37;;;;;;;41.03;30.03;;;;;;;4.75;100.00;99637.69;2087626;28;20777;-71
2021/11/18 00:01:44;;;;;;;40.72;28.63;;;;;;;4.74;100.00;99633.44;2087078;28;20238;-71
2021/11/18 00:02:49;;;;;;;39.72;28.88;;;;;;;4.75;100.00;99633.19;2087781;28;20747;-70
2021/11/18 00:03:50;;;;;;;39.28;30.70;;;;;;;4.77;100.00;99627.66;2088512;28;20219;-71
2021/11/18 00:04:54;;;;;;;44.57;30.83;;;;;;;4.79;100.00;99631.69;2087765;28;20310;-71
2021/11/18 00:05:55;;;;;;;40.15;29.08;;;;;;;4.74;100.00;99636.09;2087197;28;20218;-70
2021/11/18 00:06:57;;;;;;;41.30;29.10;;;;;;;4.73;100.00;99626.56;2087578;28;20309;-71
2021/11/18 00:07:59;;;;;;;39.90;29.45;;;;;;;4.75;100.00;99642.97;2087490;28;20211;-70
2021/11/18 00:09:03;;;;;;;43.92;30.98;;;;;;;4.69;100.00;99638.66;2087391;28;20245;-71
2021/11/18 00:10:05;;;;;;;40.20;29.15;;;;;;;4.72;100.00;99644.25;2087732;28;20260;-71
2021/11/18 00:11:09;;;;;;;37.97;28.80;;;;;;;4.74;100.00;99636.88;2088282;28;20242;-71
2021/11/18 00:12:10;;;;;;;42.97;30.02;;;;;;;4.73;100.00;99640.56;2087129;28;20223;-71
2021/11/18 00:13:15;;;;;;;43.90;31.43;;;;;;;4.70;100.00;99638.44;2079235;28;20246;-71
2021/11/18 00:14:18;;;;;;;48.78;31.30;;;;;;;4.67;100.00;99638.88;2087472;28;20218;-71
2021/11/18 00:15:23;;;;;;;47.75;32.13;;;;;;;4.69;100.00;99649.22;2088150;28;20279;-71
2021/11/18 00:16:27;;;;;;;46.78;31.48;;;;;;;4.66;100.00;99642.59;2087900;28;20245;-71
2021/11/18 00:17:28;;;;;;;45.20;31.42;;;;;;;4.68;100.00;99647.63;2088339;28;20222;-70
2021/11/18 00:18:32;;;;;;;42.37;30.73;;;;;;;4.65;100.00;99645.47;2087003;28;20227;-70
2021/11/18 00:19:32;;;;;;;45.83;31.20;;;;;;;4.64;100.00;99651.81;2087570;28;20222;-70
2021/11/18 00:20:36;;;;;;;45.90;30.67;;;;;;;4.62;100.00;99651.25;2087457;28;20313;-70
2021/11/18 00:21:39;;;;;;;43.67;31.48;;;;;;;4.61;100.00;99657.59;2087135;28;20226;-72
2021/11/18 00:22:42;;;;;;;45.05;29.80;;;;;;;4.59;100.00;99657.00;2088252;28;20222;-70
2021/11/18 00:23:47;;;;;;;47.00;31.40;;;;;;;4.59;100.00;99655.16;2087405;28;20230;-70
2021/11/18 00:24:49;;;;;;;44.22;30.00;;;;;;;4.63;100.00;99668.72;2079973;28;20273;-71
2021/11/18 00:25:53;;;;;;;45.17;32.58;;;;;;;4.59;100.00;99663.09;2087510;28;20222;-71
2021/11/18 00:26:55;;;;;;;49.00;31.77;;;;;;;4.53;100.00;99654.28;2088687;28;20231;-71
2021/11/18 00:27:57;;;;;;;47.53;31.85;;;;;;;4.53;100.00;99659.59;2079194;28;20724;-70
2021/11/18 00:28:58;;;;;;;49.60;32.15;;;;;;;4.56;100.00;99660.94;2087470;28;20222;-70
2021/11/18 00:30:05;;;;;;;45.13;31.38;;;;;;;4.50;100.00;99649.47;2088171;28;20222;-71
2021/11/18 00:31:07;;;;;;;53.88;33.30;;;;;;;4.47;100.00;99663.19;2087052;28;20302;-70
2021/11/18 00:32:08;;;;;;;48.17;32.42;;;;;;;4.52;100.00;99660.63;2078933;28;20243;-71
2021/11/18 00:33:11;;;;;;;47.97;33.20;;;;;;;4.51;100.00;99652.91;2087439;28;20223;-70
2021/11/18 00:34:13;;;;;;;47.78;31.60;;;;;;;4.53;100.00;99659.59;2087635;28;20231;-70
2021/11/18 00:35:17;;;;;;;53.72;32.88;;;;;;;4.53;100.00;99656.16;2079605;28;20678;-71
2021/11/18 00:36:24;;;;;;;48.13;32.45;;;;;;;4.53;100.00;99658.78;2087512;28;20256;-70
2021/11/18 00:37:30;;;;;;;48.75;32.38;;;;;;;4.49;100.00;99660.28;2079142;28;20227;-70
2021/11/18 00:38:32;;;;;;;50.35;32.75;;;;;;;4.44;100.00;99663.66;2081703;28;20234;-71
2021/11/18 00:39:33;;;;;;;50.63;33.65;;;;;;;4.45;100.00;99654.69;2078718;28;20241;-70
2021/11/18 00:40:35;;;;;;;49.92;33.35;;;;;;;4.43;100.00;99658.59;2087321;28;20253;-71
2021/11/18 00:41:37;;;;;;;50.40;32.85;;;;;;;4.42;100.00;99665.72;2087259;28;20234;-70
2021/11/18 00:42:38;;;;;;;50.78;32.97;;;;;;;4.43;100.00;99664.72;2078668;28;20232;-71
2021/11/18 00:43:43;;;;;;;51.38;31.63;;;;;;;4.44;100.00;99666.31;2078943;28;20231;-70
2021/11/18 00:44:45;;;;;;;49.95;32.65;;;;;;;4.44;100.00;99657.59;2079157;28;20219;-70
2021/11/18 00:45:49;;;;;;;50.97;32.58;;;;;;;4.44;100.00;99666.31;2087394;28;20689;-70
2021/11/18 00:46:51;;;;;;;49.35;32.15;;;;;;;4.42;100.00;99665.72;2087267;28;20219;-70
2021/11/18 00:47:53;;;;;;;51.33;33.83;;;;;;;4.43;100.00;99656.78;2087169;28;20222;-75
2021/11/18 00:48:57;;;;;;;50.80;33.00;;;;;;;4.43;100.00;99656.78;2087615;28;20222;-71
2021/11/18 00:49:57;;;;;;;49.90;34.55;;;;;;;4.38;100.00;99648.78;2087397;28;20566;-70
2021/11/18 00:51:03;;;;;;;57.53;34.47;;;;;;;4.39;100.00;99663.59;2080256;28;20241;-71
2021/11/18 00:52:04;;;;;;;47.90;33.20;;;;;;;4.40;100.00;99656.44;2079226;28;20253;-71
2021/11/18 00:53:06;;;;;;;50.05;32.58;;;;;;;4.42;100.00;99662.28;2079020;28;20273;-71
2021/11/18 00:54:07;;;;;;;47.67;33.35;;;;;;;4.42;100.00;99665.72;2078602;28;20754;-72
2021/11/18 00:55:11;;;;;;;48.30;33.08;;;;;;;4.46;100.00;99656.31;2087160;28;20242;-70
2021/11/18 00:56:14;;;;;;;52.28;33.22;;;;;;;4.51;100.00;99663.47;2087186;28;20219;-70
2021/11/18 00:57:16;;;;;;;51.25;33.92;;;;;;;4.47;100.00;99663.19;2087460;28;20229;-70
2021/11/18 00:58:20;;;;;;;50.83;33.03;;;;;;;4.45;100.00;99659.97;2086801;28;20223;-70
2021/11/18 00:59:20;;;;;;;51.67;32.88;;;;;;;4.48;100.00;99670.06;2078965;28;20223;-71
2021/11/18 01:00:26;;;;;;;49.15;32.80;;;;;;;4.46;100.00;99669.50;2078935;28;20277;-71
2021/11/18 01:01:31;;;;;;;49.15;33.58;;;;;;;4.43;100.00;99661.25;2079282;28;20258;-71
2021/11/18 01:02:36;;;;;;;46.15;32.47;;;;;;;4.42;100.00;99665.72;2079755;28;20623;-70
2021/11/18 01:03:37;;;;;;;48.25;32.85;;;;;;;4.41;100.00;99666.78;2078284;28;20277;-72
2021/11/18 01:04:39;;;;;;;46.57;32.87;;;;;;;4.43;100.00;99670.00;2078682;28;20254;-71
2021/11/18 01:05:42;;;;;;;50.80;32.67;;;;;;;4.43;100.00;99669.16;2078948;28;20709;-70
2021/11/18 01:06:44;;;;;;;47.97;32.05;;;;;;;4.45;100.00;99673.19;2083600;28;20231;-71
2021/11/18 01:07:45;;;;;;;49.30;33.25;;;;;;;4.44;100.00;99668.97;2087277;28;20273;-70
2021/11/18 01:08:48;;;;;;;45.30;31.75;;;;;;;4.49;100.00;99673.50;2087161;28;20214;-70
2021/11/18 01:09:49;;;;;;;50.03;32.10;;;;;;;4.48;100.00;99669.25;2078790;28;20587;-70
2021/11/18 01:10:53;;;;;;;52.93;33.17;;;;;;;4.45;100.00;99665.28;2078953;28;20219;-71
2021/11/18 01:11:54;;;;;;;50.20;33.80;;;;;;;4.46;100.00;99671.34;2086919;28;20646;-71
2021/11/18 01:12:57;;;;;;;51.13;33.85;;;;;;;4.45;100.00;99681.13;2087125;28;20682;-71
2021/11/18 01:14:00;;;;;;;50.13;34.33;;;;;;;4.42;100.00;99676.28;2087165;28;20640;-71
2021/11/18 01:15:04;;;;;;;53.03;34.35;;;;;;;4.43;100.00;99677.94;2086711;28;20655;-71
2021/11/18 01:16:07;;;;;;;50.50;33.05;;;;;;;4.45;100.00;99686.41;2079051;28;20223;-70
2021/11/18 01:17:09;;;;;;;53.33;33.25;;;;;;;4.43;100.00;99677.94;2080479;28;20223;-71
2021/11/18 01:18:12;;;;;;;51.47;34.53;;;;;;;4.57;100.00;99672.31;2080899;28;20230;-70
2021/11/18 01:19:15;;;;;;;50.05;33.58;;;;;;;4.52;100.00;99676.47;2087072;28;20230;-71
2021/11/18 01:20:18;;;;;;;48.25;33.17;;;;;;;4.52;100.00;99679.13;2087004;28;20313;-71
2021/11/18 01:21:20;;;;;;;49.78;33.00;;;;;;;4.48;100.00;99680.63;2079074;28;20678;-70
2021/11/18 01:22:22;;;;;;;53.40;32.65;;;;;;;4.47;100.00;99676.38;2079016;28;20587;-70
2021/11/18 01:23:26;;;;;;;53.65;33.67;;;;;;;4.45;100.00;99681.13;2086762;28;20233;-70
2021/11/18 01:24:29;;;;;;;54.53;33.13;;;;;;;4.42;100.00;99664.94;2089017;28;20234;-71
2021/11/18 01:25:51;;;;;;;47.58;31.70;;;;;;;4.44;100.00;99668.16;2089613;28;20687;-70
2021/11/18 01:26:53;;;;;;;54.53;34.65;;;;;;;4.44;100.00;99671.59;2078340;28;20236;-71
2021/11/18 01:27:59;;;;;;;46.88;32.28;;;;;;;4.47;100.00;99663.19;2086369;28;20705;-71
2021/11/18 01:29:01;;;;;;;55.40;32.13;;;;;;;4.48;100.00;99666.63;2079850;28;20693;-71
2021/11/18 01:30:05;;;;;;;49.35;33.75;;;;;;;4.50;100.00;99661.88;2080724;28;20227;-70
2021/11/18 01:31:07;;;;;;;53.20;32.75;;;;;;;4.49;100.00;99668.22;2079107;28;20273;-70
2021/11/18 01:32:12;;;;;;;48.03;32.10;;;;;;;4.60;100.00;99671.81;2078573;28;20284;-70
2021/11/18 01:33:19;;;;;;;50.50;32.35;;;;;;;4.53;100.00;99667.50;2079606;28;20223;-71
2021/11/18 01:34:20;;;;;;;47.72;31.88;;;;;;;4.53;100.00;99667.50;2078888;28;20215;-70
2021/11/18 01:35:22;;;;;;;47.80;32.73;;;;;;;4.51;100.00;99669.56;2078642;28;20243;-70
2021/11/18 01:36:24;;;;;;;45.38;32.28;;;;;;;4.49;100.00;99666.38;2078247;28;20227;-71
2021/11/18 01:37:34;;;;;;;44.22;31.30;;;;;;;4.59;100.00;99680.78;2082080;28;20231;-71
2021/11/18 01:38:37;;;;;;;51.03;33.10;;;;;;;4.54;100.00;99674.41;2078765;28;20227;-71
2021/11/18 01:39:58;;;;;;;48.40;32.92;;;;;;;4.48;100.00;99663.97;2083133;28;20612;-71
2021/11/18 01:41:06;;;;;;;51.92;32.10;;;;;;;4.52;100.00;99667.75;2086899;28;20249;-71
2021/11/18 01:42:11;;;;;;;47.72;31.67;;;;;;;4.53;100.00;99664.06;2086539;28;20289;-70
2021/11/18 01:43:13;;;;;;;49.20;32.38;;;;;;;4.52;100.00;99665.13;2085594;28;20230;-72
2021/11/18 01:44:17;;;;;;;45.72;31.95;;;;;;;4.51;100.00;99659.00;2095070;28;20210;-70
2021/11/18 01:45:20;;;;;;;46.35;31.77;;;;;;;4.57;100.00;99662.53;2087697;28;20291;-71
2021/11/18 01:46:25;;;;;;;45.63;31.92;;;;;;;4.55;100.00;99659.34;2086583;28;20287;-70
2021/11/18 01:47:28;;;;;;;44.50;31.52;;;;;;;4.53;100.00;99667.50;2081217;28;20752;-71
2021/11/18 01:48:30;;;;;;;47.80;32.33;;;;;;;4.53;100.00;99664.88;2078642;28;20227;-70
2021/11/18 01:49:31;;;;;;;45.58;31.70;;;;;;;4.53;100.00;99661.44;2078702;28;20275;-71
2021/11/18 01:50:35;;;;;;;46.35;32.22;;;;;;;4.54;100.00;99657.75;2078715;28;20228;-71
2021/11/18 01:51:41;;;;;;;46.10;31.70;;;;;;;4.52;100.00;99663.28;2078477;28;20664;-72
2021/11/18 01:52:45;;;;;;;45.50;30.92;;;;;;;4.48;100.00;99658.69;2078905;28;20231;-71
2021/11/18 01:53:47;;;;;;;43.70;31.90;;;;;;;4.49;100.00;99657.66;2078282;28;20228;-70
2021/11/18 01:54:51;;;;;;;39.38;30.73;;;;;;;4.53;100.00;99650.84;2078866;28;20269;-70
2021/11/18 01:55:53;;;;;;;40.47;30.50;;;;;;;4.50;100.00;99653.97;2078183;28;20577;-71
2021/11/18 01:56:56;;;;;;;42.72;30.30;;;;;;;4.47;100.00;99642.03;2086708;28;20218;-70
2021/11/18 01:57:56;;;;;;;40.45;30.77;;;;;;;4.52;100.00;99644.78;2093544;28;20233;-71
2021/11/18 01:59:39;;;;;;;44.28;29.40;;;;;;;4.54;100.00;99647.16;2082627;28;20226;-71
2021/11/18 02:01:13;;;;;;;43.05;31.08;;;;;;;4.51;100.00;99647.63;2061152;28;20228;-71
2021/11/18 02:02:14;;;;;;;42.38;30.00;;;;;;;4.51;100.00;99645.00;2078980;28;20226;-71
2021/11/18 02:03:50;;;;;;;42.45;30.38;;;;;;;4.50;100.00;99643.41;2053521;28;20575;-71
2021/11/18 02:05:11;;;;;;;43.10;30.85;;;;;;;4.51;100.00;99653.72;2083926;28;20227;-71
2021/11/18 02:06:17;;;;;;;44.05;30.27;;;;;;;4.49;100.00;99653.16;2086255;28;20234;-72
2021/11/18 02:07:20;;;;;;;42.80;31.65;;;;;;;4.50;100.00;99653.97;2086674;28;20222;-71
2021/11/18 02:08:23;;;;;;;46.50;29.85;;;;;;;4.54;100.00;99658.53;2088239;28;20223;-74
2021/11/18 02:09:39;;;;;;;39.67;29.30;;;;;;;4.57;100.00;99656.44;2088075;28;20688;-71
2021/11/18 02:10:44;;;;;;;39.35;29.98;;;;;;;4.56;100.00;99655.66;2086619;28;20313;-71
2021/11/18 02:11:47;;;;;;;41.78;29.67;;;;;;;4.52;100.00;99652.69;2078905;28;20808;-71
2021/11/18 02:12:49;;;;;;;41.70;29.77;;;;;;;4.51;100.00;99648.44;2078570;28;20223;-71
2021/11/18 02:13:50;;;;;;;42.33;30.45;;;;;;;4.50;100.00;99651.31;2078241;28;20223;-71
2021/11/18 02:14:53;;;;;;;43.88;30.63;;;;;;;4.52;100.00;99654.53;2078208;28;20219;-71
2021/11/18 02:15:55;;;;;;;41.97;30.08;;;;;;;4.50;100.00;99653.97;2078105;28;20230;-71
2021/11/18 02:17:00;;;;;;;41.75;29.95;;;;;;;4.49;100.00;99649.72;2078251;28;20230;-71
2021/11/18 02:18:03;;;;;;;39.35;31.08;;;;;;;4.47;100.00;99649.97;2078821;28;20222;-71
2021/11/18 02:19:10;;;;;;;37.97;29.33;;;;;;;4.50;100.00;99649.47;2078674;28;20728;-72
2021/11/18 02:20:20;;;;;;;40.70;30.08;;;;;;;4.52;100.00;99657.97;2086811;28;20223;-71
2021/11/18 02:21:23;;;;;;;39.33;29.20;;;;;;;4.54;100.00;99657.75;2086585;28;20293;-71
2021/11/18 02:22:24;;;;;;;40.70;30.23;;;;;;;4.53;100.00;99667.50;2086165;28;20689;-71
2021/11/18 02:23:29;;;;;;;39.97;29.33;;;;;;;4.51;100.00;99659.00;2086312;28;21539;-71
2021/11/18 02:24:35;;;;;;;42.63;29.58;;;;;;;4.52;100.00;99657.97;2086838;28;20226;-71
2021/11/18 02:25:38;;;;;;;39.53;29.65;;;;;;;4.48;100.00;99654.22;2086890;28;20227;-71
2021/11/18 02:26:41;;;;;;;41.75;29.67;;;;;;;4.51;100.00;99659.00;2086661;28;20258;-72
2021/11/18 02:27:43;;;;;;;39.43;28.87;;;;;;;4.49;100.00;99655.81;2086536;28;20226;-71
2021/11/18 02:28:48;;;;;;;40.97;29.77;;;;;;;4.49;100.00;99660.28;2086525;28;20230;-71
2021/11/18 02:29:52;;;;;;;38.28;29.10;;;;;;;4.46;100.00;99650.22;2094845;28;20244;-69
2021/11/18 02:30:54;;;;;;;45.03;30.63;;;;;;;4.45;100.00;99654.69;2094363;28;20226;-70
2021/11/18 02:32:06;;;;;;;44.00;30.27;;;;;;;4.43;100.00;99651.50;2086605;28;20226;-69
2021/11/18 02:33:19;;;;;;;38.13;28.90;;;;;;;4.42;100.00;99652.53;2080820;28;20223;-69
2021/11/18 02:34:23;;;;;;;35.78;28.02;;;;;;;4.42;100.00;99660.44;2078434;28;20230;-70
2021/11/18 02:35:29;;;;;;;40.80;29.75;;;;;;;4.39;100.00;99653.00;2086447;28;20268;-69
2021/11/18 02:36:30;;;;;;;37.88;28.58;;;;;;;4.38;100.00;99648.78;2087111;28;20226;-69
2021/11/18 02:37:31;;;;;;;36.83;28.60;;;;;;;4.38;100.00;99653.25;2086409;28;20760;-69
2021/11/18 02:38:32;;;;;;;38.95;28.38;;;;;;;4.40;100.00;99659.09;2086410;28;20279;-69
2021/11/18 02:39:42;;;;;;;35.42;28.58;;;;;;;4.40;100.00;99661.72;2079046;28;20254;-70
2021/11/18 02:40:43;;;;;;;41.50;29.45;;;;;;;4.44;100.00;99668.16;2078236;28;20223;-70
2021/11/18 02:41:46;;;;;;;38.30;28.17;;;;;;;4.42;100.00;99672.84;2078079;28;20232;-69
2021/11/18 02:42:48;;;;;;;38.65;29.05;;;;;;;4.46;100.00;99669.50;2078385;28;20300;-69
2021/11/18 02:43:51;;;;;;;38.38;29.38;;;;;;;4.47;100.00;99665.81;2078201;28;20222;-69
2021/11/18 02:44:52;;;;;;;39.03;29.83;;;;;;;4.50;100.00;99667.97;2077912;28;20223;-74
2021/11/18 02:45:54;;;;;;;37.88;28.83;;;;;;;4.52;100.00;99671.19;2078008;28;20580;-70
2021/11/18 02:46:54;;;;;;;37.50;29.63;;;;;;;4.53;100.00;99672.78;2078058;28;20224;-70
2021/11/18 02:47:57;;;;;;;38.37;28.53;;;;;;;4.52;100.00;99665.91;2078182;28;20223;-69
2021/11/18 02:48:59;;;;;;;39.75;29.08;;;;;;;4.51;100.00;99661.66;2077837;28;20223;-70
2021/11/18 02:50:02;;;;;;;36.85;29.42;;;;;;;4.51;100.00;99669.56;2078371;28;20219;-70
2021/11/18 02:51:10;;;;;;;39.38;28.60;;;;;;;4.51;100.00;99668.78;2078211;28;20699;-70
2021/11/18 02:52:12;;;;;;;38.20;29.75;;;;;;;4.51;100.00;99666.94;2078530;28;20605;-69
2021/11/18 02:53:14;;;;;;;38.00;28.38;;;;;;;4.49;100.00;99658.44;2078227;28;20710;-69
2021/11/18 02:54:15;;;;;;;40.55;28.83;;;;;;;4.53;100.00;99675.44;2078279;28;20227;-69
2021/11/18 02:55:20;;;;;;;41.00;28.70;;;;;;;4.58;100.00;99668.63;2077878;28;20323;-70
2021/11/18 02:56:24;;;;;;;39.25;29.00;;;;;;;4.54;100.00;99677.03;2086559;28;20276;-69
2021/11/18 02:57:26;;;;;;;37.67;28.60;;;;;;;4.54;100.00;99679.69;2086690;28;20229;-70
2021/11/18 02:58:28;;;;;;;40.92;30.27;;;;;;;4.53;100.00;99686.00;2087121;28;20239;-69
2021/11/18 02:59:29;;;;;;;38.78;29.63;;;;;;;4.52;100.00;99688.91;2086215;28;20657;-69
2021/11/18 03:00:41;;;;;;;38.85;29.55;;;;;;;4.53;100.00;99688.66;2078510;28;20254;-69
2021/11/18 03:01:46;;;;;;;38.53;28.75;;;;;;;4.52;100.00;99687.06;2078803;28;20231;-70
2021/11/18 03:02:49;;;;;;;39.65;29.65;;;;;;;4.61;100.00;99694.59;2079148;28;20227;-69
2021/11/18 03:03:50;;;;;;;41.30;30.50;;;;;;;4.62;100.00;99694.34;2078062;28;20228;-69
2021/11/18 03:04:52;;;;;;;42.85;30.50;;;;;;;4.63;100.00;99695.13;2077996;28;20240;-70
2021/11/18 03:05:56;;;;;;;39.33;29.95;;;;;;;4.61;100.00;99689.28;2085919;28;20716;-69
2021/11/18 03:07:00;;;;;;;35.85;29.30;;;;;;;4.58;100.00;99685.28;2086187;28;20305;-72
2021/11/18 03:08:00;;;;;;;39.15;30.80;;;;;;;4.60;100.00;99695.59;2078173;28;20231;-70
2021/11/18 03:09:06;;;;;;;40.37;30.40;;;;;;;4.59;100.00;99700.06;2077458;28;20298;-69
2021/11/18 03:10:09;;;;;;;40.25;29.42;;;;;;;4.59;100.00;99692.16;2077947;28;20235;-70
2021/11/18 03:11:12;;;;;;;39.78;29.98;;;;;;;4.59;100.00;99686.06;2086272;28;20242;-69
2021/11/18 03:12:13;;;;;;;43.33;30.33;;;;;;;4.58;100.00;99692.41;2086221;28;20289;-69
2021/11/18 03:13:15;;;;;;;40.83;29.37;;;;;;;4.57;100.00;99690.81;2078023;28;20223;-70
2021/11/18 03:14:16;;;;;;;39.75;29.88;;;;;;;4.55;100.00;99691.03;2086333;28;20245;-69
2021/11/18 03:15:26;;;;;;;41.88;30.85;;;;;;;4.54;100.00;99700.81;2085757;28;20236;-69
2021/11/18 03:16:29;;;;;;;40.50;30.15;;;;;;;4.53;100.00;99699.22;2086434;28;20231;-69
2021/11/18 03:17:36;;;;;;;41.60;29.27;;;;;;;4.52;100.00;99692.34;2093779;28;20221;-69
2021/11/18 03:18:52;;;;;;;40.65;30.85;;;;;;;4.56;100.00;99699.78;2085429;28;20221;-73
2021/11/18 03:19:53;;;;;;;42.43;30.67;;;;;;;4.50;100.00;99697.03;2077942;28;20320;-69
2021/11/18 03:20:57;;;;;;;38.50;29.80;;;;;;;4.57;100.00;99704.00;2086327;28;20700;-69
2021/11/18 03:22:01;;;;;;;43.78;30.60;;;;;;;4.54;100.00;99694.72;2086221;28;20687;-69
2021/11/18 03:23:03;;;;;;;43.58;30.90;;;;;;;4.51;100.00;99705.75;2086100;28;20253;-69
2021/11/18 03:24:06;;;;;;;45.13;31.92;;;;;;;4.53;100.00;99698.41;2086300;28;20717;-69
2021/11/18 03:25:08;;;;;;;47.78;31.17;;;;;;;4.51;100.00;99696.00;2085796;28;20226;-72
2021/11/18 03:26:11;;;;;;;43.20;30.70;;;;;;;4.51;100.00;99701.28;2086147;28;20230;-69
2021/11/18 03:27:12;;;;;;;45.53;31.38;;;;;;;4.51;100.00;99706.56;2086225;28;20230;-69
2021/11/18 03:28:15;;;;;;;44.67;31.58;;;;;;;4.53;100.00;99704.50;2078079;28;20225;-69
2021/11/18 03:29:16;;;;;;;46.00;33.08;;;;;;;4.55;100.00;99696.34;2086236;28;20681;-70
2021/11/18 03:30:22;;;;;;;47.70;32.37;;;;;;;4.58;100.00;99698.47;2086307;28;20670;-69
2021/11/18 03:31:24;;;;;;;45.17;30.55;;;;;;;4.57;100.00;99698.72;2086475;28;20226;-69
2021/11/18 03:32:26;;;;;;;45.83;31.85;;;;;;;4.57;100.00;99696.09;2086091;28;20246;-69
2021/11/18 03:33:31;;;;;;;45.53;31.67;;;;;;;4.54;100.00;99695.53;2078170;28;20223;-69
2021/11/18 03:34:34;;;;;;;46.83;32.17;;;;;;;4.52;100.00;99692.34;2080286;28;20231;-69
2021/11/18 03:35:35;;;;;;;44.47;32.00;;;;;;;4.50;100.00;99696.25;2077891;28;20241;-69
2021/11/18 03:36:38;;;;;;;47.50;30.03;;;;;;;4.53;100.00;99693.94;2078058;28;20232;-71
2021/11/18 03:37:41;;;;;;;43.17;30.20;;;;;;;4.55;100.00;99696.34;2090614;28;20236;-69
2021/11/18 03:38:44;;;;;;;43.97;30.65;;;;;;;4.58;100.00;99701.13;2086140;28;20230;-70
2021/11/18 03:39:49;;;;;;;46.15;30.83;;;;;;;4.54;100.00;99700.03;2086197;28;20222;-69
2021/11/18 03:40:51;;;;;;;45.30;32.37;;;;;;;4.51;100.00;99701.28;2086178;28;20309;-70
2021/11/18 03:41:55;;;;;;;45.10;31.92;;;;;;;4.54;100.00;99707.94;2089970;28;20463;-70
2021/11/18 03:42:59;;;;;;;46.58;32.42;;;;;;;4.52;100.00;99710.03;2086421;28;20218;-70
2021/11/18 03:44:02;;;;;;;43.13;32.60;;;;;;;4.50;100.00;99704.16;2084301;28;20288;-70
2021/11/18 03:45:06;;;;;;;41.30;31.40;;;;;;;4.48;100.00;99706.25;2082387;28;20669;-70
2021/11/18 03:46:07;;;;;;;43.42;32.75;;;;;;;4.46;100.00;99714.44;2089630;28;20238;-73
2021/11/18 03:47:12;;;;;;;45.17;32.03;;;;;;;4.44;100.00;99711.22;2086340;28;20223;-69
2021/11/18 03:48:19;;;;;;;45.85;32.08;;;;;;;4.44;100.00;99703.31;2078864;28;20701;-70
2021/11/18 03:49:22;;;;;;;44.92;31.75;;;;;;;4.48;100.00;99704.41;2078294;28;20292;-70
2021/11/18 03:50:25;;;;;;;39.90;31.02;;;;;;;4.44;100.00;99713.88;2086090;28;20223;-70
2021/11/18 03:51:31;;;;;;;46.80;31.83;;;;;;;4.45;100.00;99702.25;2080879;28;20235;-70
2021/11/18 03:52:32;;;;;;;43.83;31.77;;;;;;;4.46;100.00;99708.34;2086151;28;20223;-70
2021/11/18 03:53:37;;;;;;;49.38;32.83;;;;;;;4.45;100.00;99699.63;2078406;28;20263;-70
2021/11/18 03:54:40;;;;;;;45.03;32.08;;;;;;;4.47;100.00;99710.75;2079582;28;20239;-71
2021/11/18 03:55:41;;;;;;;47.15;30.95;;;;;;;4.49;100.00;99715.78;2078237;28;20326;-70
2021/11/18 03:56:43;;;;;;;40.90;29.73;;;;;;;4.48;100.00;99711.53;2078086;28;20299;-70
2021/11/18 03:57:48;;;;;;;41.53;30.83;;;;;;;4.46;100.00;99701.22;2085141;28;20233;-70
2021/11/18 03:58:53;;;;;;;42.13;30.35;;;;;;;4.43;100.00;99714.91;2078388;28;20608;-71
2021/11/18 03:59:56;;;;;;;45.47;31.27;;;;;;;4.41;100.00;99706.41;2078090;28;20227;-69
2021/11/18 04:00:56;;;;;;;42.40;31.38;;;;;;;4.39;100.00;99707.69;2077824;28;20270;-71
2021/11/18 04:01:59;;;;;;;46.10;31.65;;;;;;;4.41;100.00;99711.69;2077854;28;20230;-69
2021/11/18 04:03:01;;;;;;;43.50;31.15;;;;;;;4.43;100.00;99717.56;2086099;28;20225;-70
2021/11/18 04:04:11;;;;;;;43.50;30.75;;;;;;;4.44;100.00;99715.72;2085424;28;20260;-69
2021/11/18 04:05:15;;;;;;;47.75;33.00;;;;;;;4.41;100.00;99716.97;2078542;28;20303;-70
2021/11/18 04:06:20;;;;;;;40.03;30.85;;;;;;;4.45;100.00;99722.59;2078049;28;20637;-70
2021/11/18 04:07:39;;;;;;;47.20;32.75;;;;;;;4.45;100.00;99720.75;2079445;28;20817;-69
2021/11/18 04:08:41;;;;;;;40.72;30.65;;;;;;;4.43;100.00;99714.91;2079352;28;20651;-70
2021/11/18 04:09:44;;;;;;;43.75;31.08;;;;;;;4.41;100.00;99726.75;2077773;28;20231;-70
2021/11/18 04:10:47;;;;;;;45.97;32.10;;;;;;;4.37;100.00;99721.16;2078010;28;20286;-70
2021/11/18 04:11:51;;;;;;;44.33;32.22;;;;;;;4.38;100.00;99727.22;2082296;28;20233;-69
2021/11/18 04:12:53;;;;;;;44.97;31.65;;;;;;;4.37;100.00;99715.84;2087842;28;20249;-71
2021/11/18 04:13:55;;;;;;;42.42;30.85;;;;;;;4.38;100.00;99722.75;2085456;28;20234;-70
2021/11/18 04:15:00;;;;;;;42.47;31.58;;;;;;;4.38;100.00;99719.31;2078168;28;20277;-70
2021/11/18 04:16:01;;;;;;;44.58;31.75;;;;;;;4.36;100.00;99722.19;2077855;28;20231;-70
2021/11/18 04:17:09;;;;;;;41.97;30.75;;;;;;;4.40;100.00;99725.13;2079673;28;20227;-69
2021/11/18 04:18:10;;;;;;;44.95;31.40;;;;;;;4.41;100.00;99718.81;2085962;28;20639;-70
2021/11/18 04:19:18;;;;;;;41.17;30.98;;;;;;;4.40;100.00;99717.22;2095991;28;20224;-69
2021/11/18 04:20:19;;;;;;;43.97;31.40;;;;;;;4.38;100.00;99714.81;2095172;28;20214;-69
2021/11/18 04:21:21;;;;;;;44.08;31.60;;;;;;;4.37;100.00;99715.84;2087498;28;20332;-69
2021/11/18 04:22:22;;;;;;;46.92;32.13;;;;;;;4.37;100.00;99705.28;2078946;28;20224;-71
2021/11/18 04:23:27;;;;;;;47.28;33.15;;;;;;;4.36;100.00;99721.38;2087600;28;20677;-69
2021/11/18 04:24:32;;;;;;;45.03;32.90;;;;;;;4.34;100.00;99712.88;2087458;28;20658;-69
2021/11/18 04:25:35;;;;;;;39.70;32.42;;;;;;;4.34;100.00;99726.09;2079676;28;20243;-70
2021/11/18 04:26:38;;;;;;;45.80;32.00;;;;;;;4.33;100.00;99722.66;2079392;28;20716;-69
2021/11/18 04:27:42;;;;;;;48.80;33.88;;;;;;;4.32;100.00;99723.69;2087444;28;20230;-69
2021/11/18 04:28:43;;;;;;;46.95;35.13;;;;;;;4.34;100.00;99723.44;2087339;28;20226;-70
2021/11/18 04:29:45;;;;;;;46.13;34.20;;;;;;;4.34;100.00;99721.59;2079210;28;20219;-70
2021/11/18 04:30:49;;;;;;;43.90;33.88;;;;;;;4.34;100.00;99726.88;2079326;28;20223;-69
2021/11/18 04:31:55;;;;;;;43.65;32.88;;;;;;;4.32;100.00;99726.31;2083943;28;20637;-69
2021/11/18 04:33:00;;;;;;;42.60;32.78;;;;;;;4.34;100.00;99711.03;2079139;28;20232;-69
2021/11/18 04:34:06;;;;;;;45.20;32.90;;;;;;;4.34;100.00;99721.59;2083761;28;20218;-69
2021/11/18 04:35:08;;;;;;;47.20;35.28;;;;;;;4.35;100.00;99723.22;2079390;28;20262;-70
2021/11/18 04:36:12;;;;;;;41.72;32.92;;;;;;;4.34;100.00;99736.66;2079285;28;20246;-69
2021/11/18 04:37:13;;;;;;;47.17;33.85;;;;;;;4.34;100.00;99734.81;2079329;28;20306;-70
2021/11/18 04:38:15;;;;;;;42.67;33.00;;;;;;;4.40;100.00;99733.88;2078909;28;20278;-71
2021/11/18 04:39:16;;;;;;;43.42;32.92;;;;;;;4.38;100.00;99733.31;2079397;28;20248;-69
2021/11/18 04:40:21;;;;;;;43.28;33.25;;;;;;;4.35;100.00;99736.44;2079111;28;20273;-69
2021/11/18 04:41:25;;;;;;;42.42;32.85;;;;;;;4.34;100.00;99726.09;2081026;28;20253;-69
2021/11/18 04:42:28;;;;;;;47.65;35.40;;;;;;;4.31;100.00;99737.13;2087245;28;20241;-69
2021/11/18 04:43:46;;;;;;;45.10;35.03;;;;;;;4.34;100.00;99737.44;2080578;28;20231;-69
2021/11/18 04:44:47;;;;;;;46.55;34.85;;;;;;;4.34;100.00;99736.66;2079155;28;20216;-69
2021/11/18 04:45:49;;;;;;;44.53;33.78;;;;;;;4.29;100.00;99737.38;2079052;28;20223;-69
2021/11/18 04:46:57;;;;;;;45.22;34.90;;;;;;;4.30;100.00;99732.91;2087023;28;20597;-69
2021/11/18 04:47:59;;;;;;;48.05;35.33;;;;;;;4.28;100.00;99745.53;2080821;28;20678;-69
2021/11/18 04:49:00;;;;;;;45.45;33.28;;;;;;;4.26;100.00;99740.50;2079150;28;20350;-69
2021/11/18 04:50:02;;;;;;;46.30;33.87;;;;;;;4.24;100.00;99742.56;2078615;28;20697;-70
2021/11/18 04:51:03;;;;;;;53.17;34.85;;;;;;;4.21;100.00;99743.03;2079138;28;20272;-69
2021/11/18 04:52:07;;;;;;;50.30;33.85;;;;;;;4.21;100.00;99737.75;2081149;28;20219;-69
2021/11/18 04:53:09;;;;;;;44.88;34.28;;;;;;;4.23;100.00;99740.97;2087071;28;20230;-70
2021/11/18 04:54:11;;;;;;;46.60;34.45;;;;;;;4.30;100.00;99746.91;2087220;28;20223;-69